VIR658 DGAA-EGLL
Flight info
| Callsign | VIR658 |
|---|---|
| Flight time | N/A |
| Altitude | 37000 |
| Route | LITEX1D LITEX DCT KILMO UB726 BATIA DCT IPUTA DCT ABALA DCT MIGNI DCT EREBO UA604 TMS UA615 GHA UB726 BSA UJ66 ALR UG30 SADAF DCT SURIB DCT INSUB DCT RONDU DCT IZA DCT OKITI DCT GODOX DCT EPAMA DCT MARTA DCT EBROX DCT UMURE DCT XIKEN DCT KARES DCT ARBEK DCT REBUL DCT USKAR DCT MOPAS DCT GIROM DCT GONUP DCT MANAK DCT EPAPU DCT RINSO DCT EKRAS DCT REVTU DCT BOLRO UP87 ROXOG |
| Aircraft | A35K/H-SDE2E3GHIJ3J4J5LM1ORWXY/LB1D1 |
Departure
| Time | 2026-04-21 11:55 |
|---|---|
| Airport | Kotoka International Airport (DGAA) |
Arrival
| Time | N/A |
|---|---|
| Airport | London Heathrow Airport (EGLL) |
| Time | Latitude | Longitude | Altitude | Speed | Heading |
|---|---|---|---|---|---|
| 2026-04-21 11:43 | 5.60862 | -0.16860 | 229 ft | 0 kts | 112° |
| 2026-04-21 11:50 | 5.60859 | -0.16851 | 230 ft | 5 kts | 108° |
| 2026-04-21 11:50 | 5.60883 | -0.16797 | 228 ft | 11 kts | 44° |
| 2026-04-21 11:51 | 5.60942 | -0.16760 | 229 ft | 12 kts | 27° |
| 2026-04-21 11:51 | 5.61063 | -0.16707 | 228 ft | 27 kts | 22° |
| 2026-04-21 11:51 | 5.61279 | -0.16617 | 225 ft | 38 kts | 22° |
| 2026-04-21 11:51 | 5.61510 | -0.16523 | 224 ft | 19 kts | 21° |
| 2026-04-21 11:52 | 5.61521 | -0.16518 | 224 ft | 0 kts | 22° |
| 2026-04-21 11:52 | 5.61525 | -0.16517 | 226 ft | 2 kts | 22° |
| 2026-04-21 11:53 | 5.61587 | -0.16482 | 226 ft | 22 kts | 43° |
| 2026-04-21 11:53 | 5.61604 | -0.16340 | 217 ft | 21 kts | 83° |
| 2026-04-21 11:53 | 5.61716 | -0.16233 | 217 ft | 29 kts | 22° |
| 2026-04-21 11:53 | 5.61893 | -0.16184 | 206 ft | 15 kts | 72° |
| 2026-04-21 11:54 | 5.61878 | -0.16171 | 211 ft | 3 kts | 183° |
| 2026-04-21 11:54 | 5.61699 | -0.16240 | 216 ft | 57 kts | 203° |
| 2026-04-21 11:54 | 5.61145 | -0.16466 | 226 ft | 114 kts | 202° |
| 2026-04-21 11:54 | 5.60258 | -0.16832 | 219 ft | 164 kts | 203° |
| 2026-04-21 11:55 | 5.59157 | -0.17281 | 723 ft | 169 kts | 203° |
| 2026-04-21 11:55 | 5.57999 | -0.17243 | 1367 ft | 174 kts | 152° |
| 2026-04-21 11:55 | 5.57338 | -0.16250 | 1955 ft | 180 kts | 103° |
| 2026-04-21 11:55 | 5.57407 | -0.15024 | 2661 ft | 178 kts | 86° |
| 2026-04-21 11:56 | 5.57437 | -0.13714 | 2972 ft | 199 kts | 93° |
| 2026-04-21 11:56 | 5.57382 | -0.12240 | 3256 ft | 223 kts | 94° |
| 2026-04-21 11:56 | 5.57355 | -0.10610 | 3636 ft | 244 kts | 86° |
| 2026-04-21 11:56 | 5.57966 | -0.08992 | 4177 ft | 257 kts | 52° |
| 2026-04-21 11:57 | 5.59415 | -0.07938 | 4915 ft | 262 kts | 26° |
| 2026-04-21 11:57 | 5.61128 | -0.07270 | 5662 ft | 266 kts | 22° |
| 2026-04-21 11:57 | 5.62868 | -0.06630 | 6411 ft | 267 kts | 24° |
| 2026-04-21 11:57 | 5.64616 | -0.05964 | 7101 ft | 269 kts | 25° |
| 2026-04-21 11:58 | 5.66356 | -0.05277 | 7801 ft | 270 kts | 26° |
| 2026-04-21 11:58 | 5.68103 | -0.04572 | 8481 ft | 271 kts | 26° |
| 2026-04-21 11:58 | 5.69856 | -0.03856 | 9167 ft | 272 kts | 27° |
| 2026-04-21 11:58 | 5.71606 | -0.03133 | 9837 ft | 273 kts | 27° |
| 2026-04-21 11:59 | 5.73382 | -0.02395 | 10250 ft | 282 kts | 27° |
| 2026-04-21 11:59 | 5.75244 | -0.01620 | 10511 ft | 297 kts | 27° |
| 2026-04-21 11:59 | 5.77201 | -0.00809 | 10776 ft | 311 kts | 27° |
| 2026-04-21 11:59 | 5.79249 | 0.00037 | 11043 ft | 325 kts | 26° |
| 2026-04-21 12:00 | 5.81382 | 0.00916 | 11302 ft | 338 kts | 26° |
| 2026-04-21 12:00 | 5.83600 | 0.01830 | 11549 ft | 351 kts | 26° |
| 2026-04-21 12:00 | 5.85900 | 0.02777 | 11777 ft | 363 kts | 26° |
| 2026-04-21 12:00 | 5.88271 | 0.03750 | 11998 ft | 374 kts | 26° |
| 2026-04-21 12:01 | 5.90702 | 0.04747 | 12345 ft | 381 kts | 25° |
| 2026-04-21 12:01 | 5.93261 | 0.05552 | 12721 ft | 390 kts | 15° |
| 2026-04-21 12:01 | 5.96000 | 0.05766 | 13130 ft | 401 kts | 0° |
| 2026-04-21 12:01 | 5.98776 | 0.05327 | 13556 ft | 408 kts | 350° |
| 2026-04-21 12:02 | 6.01548 | 0.04653 | 13940 ft | 411 kts | 348° |
| 2026-04-21 12:02 | 6.07126 | 0.03248 | 14776 ft | 415 kts | 348° |
| 2026-04-21 12:02 | 6.09898 | 0.02562 | 15161 ft | 417 kts | 348° |
| 2026-04-21 12:03 | 6.12717 | 0.01869 | 15547 ft | 418 kts | 348° |
| 2026-04-21 12:03 | 6.15551 | 0.01174 | 15916 ft | 420 kts | 348° |
| 2026-04-21 12:03 | 6.18404 | 0.00477 | 16280 ft | 423 kts | 348° |
| 2026-04-21 12:03 | 6.21264 | -0.00222 | 16658 ft | 424 kts | 347° |
| 2026-04-21 12:04 | 6.24137 | -0.00923 | 16996 ft | 426 kts | 347° |
| 2026-04-21 12:04 | 6.27024 | -0.01627 | 17342 ft | 428 kts | 347° |
| 2026-04-21 12:04 | 6.29924 | -0.02336 | 17673 ft | 430 kts | 347° |
| 2026-04-21 12:04 | 6.32835 | -0.03046 | 17989 ft | 432 kts | 347° |
| 2026-04-21 12:05 | 6.35760 | -0.03759 | 18271 ft | 434 kts | 347° |
| 2026-04-21 12:05 | 6.38701 | -0.04476 | 18528 ft | 436 kts | 347° |
| 2026-04-21 12:05 | 6.41640 | -0.05192 | 18790 ft | 437 kts | 347° |
| 2026-04-21 12:05 | 6.44611 | -0.05917 | 19036 ft | 439 kts | 347° |
| 2026-04-21 12:06 | 6.47587 | -0.06643 | 19281 ft | 441 kts | 347° |
| 2026-04-21 12:06 | 6.50572 | -0.07371 | 19514 ft | 442 kts | 347° |
| 2026-04-21 12:06 | 6.53571 | -0.08103 | 19750 ft | 444 kts | 347° |
| 2026-04-21 12:06 | 6.56574 | -0.08836 | 19969 ft | 446 kts | 347° |
| 2026-04-21 12:07 | 6.59614 | -0.09494 | 20181 ft | 447 kts | 352° |
| 2026-04-21 12:07 | 6.62715 | -0.09746 | 20396 ft | 448 kts | 1° |
| 2026-04-21 12:07 | 6.65818 | -0.09456 | 20610 ft | 448 kts | 11° |
| 2026-04-21 12:07 | 6.68827 | -0.08656 | 20820 ft | 449 kts | 19° |
| 2026-04-21 12:08 | 6.71789 | -0.07620 | 21022 ft | 450 kts | 21° |
| 2026-04-21 12:08 | 6.74708 | -0.06495 | 21220 ft | 452 kts | 22° |
| 2026-04-21 12:08 | 6.77643 | -0.05320 | 21416 ft | 453 kts | 22° |
| 2026-04-21 12:08 | 6.80576 | -0.04139 | 21627 ft | 455 kts | 22° |
| 2026-04-21 12:09 | 6.83518 | -0.02964 | 21814 ft | 456 kts | 22° |
| 2026-04-21 12:09 | 6.86479 | -0.01797 | 22008 ft | 458 kts | 22° |
| 2026-04-21 12:09 | 6.89452 | -0.00637 | 22180 ft | 459 kts | 22° |
| 2026-04-21 12:09 | 6.92443 | 0.00522 | 22367 ft | 461 kts | 22° |
| 2026-04-21 12:10 | 6.95442 | 0.01680 | 22531 ft | 462 kts | 22° |
| 2026-04-21 12:10 | 6.98441 | 0.02837 | 22723 ft | 464 kts | 21° |
| 2026-04-21 12:10 | 7.01466 | 0.04004 | 22892 ft | 465 kts | 22° |
| 2026-04-21 12:10 | 7.04486 | 0.05169 | 23067 ft | 466 kts | 22° |
| 2026-04-21 12:11 | 7.07521 | 0.06342 | 23245 ft | 467 kts | 21° |
| 2026-04-21 12:11 | 7.10563 | 0.07517 | 23409 ft | 469 kts | 21° |
| 2026-04-21 12:11 | 7.13605 | 0.08693 | 23538 ft | 470 kts | 21° |
| 2026-04-21 12:11 | 7.16661 | 0.09875 | 23690 ft | 471 kts | 21° |
| 2026-04-21 12:12 | 7.19735 | 0.11063 | 23829 ft | 472 kts | 21° |
| 2026-04-21 12:12 | 7.22800 | 0.12249 | 23959 ft | 473 kts | 21° |
| 2026-04-21 12:12 | 7.25867 | 0.13435 | 24093 ft | 474 kts | 21° |
| 2026-04-21 12:12 | 7.28952 | 0.14628 | 24227 ft | 475 kts | 21° |
| 2026-04-21 12:13 | 7.32039 | 0.15823 | 24346 ft | 476 kts | 21° |
| 2026-04-21 12:13 | 7.35138 | 0.17022 | 24484 ft | 476 kts | 21° |
| 2026-04-21 12:13 | 7.38231 | 0.18219 | 24621 ft | 477 kts | 21° |
| 2026-04-21 12:13 | 7.41331 | 0.19419 | 24732 ft | 478 kts | 21° |
| 2026-04-21 12:14 | 7.44431 | 0.20619 | 24873 ft | 478 kts | 21° |
| 2026-04-21 12:14 | 7.47546 | 0.21825 | 24994 ft | 479 kts | 20° |
| 2026-04-21 12:14 | 7.50662 | 0.23033 | 25115 ft | 480 kts | 20° |
| 2026-04-21 12:14 | 7.53773 | 0.24238 | 25249 ft | 480 kts | 20° |
| 2026-04-21 12:15 | 7.56890 | 0.25445 | 25364 ft | 481 kts | 20° |
| 2026-04-21 12:15 | 7.60020 | 0.26658 | 25482 ft | 481 kts | 20° |
| 2026-04-21 12:15 | 7.63144 | 0.27869 | 25596 ft | 482 kts | 20° |
| 2026-04-21 12:15 | 7.66271 | 0.29081 | 25712 ft | 482 kts | 20° |
| 2026-04-21 12:16 | 7.69410 | 0.30299 | 25823 ft | 483 kts | 20° |
| 2026-04-21 12:16 | 7.72541 | 0.31512 | 25925 ft | 484 kts | 20° |
| 2026-04-21 12:16 | 7.75686 | 0.32732 | 26045 ft | 484 kts | 20° |
| 2026-04-21 12:16 | 7.78834 | 0.33953 | 26149 ft | 485 kts | 20° |
| 2026-04-21 12:17 | 7.81978 | 0.35173 | 26256 ft | 485 kts | 20° |
| 2026-04-21 12:17 | 7.85126 | 0.36394 | 26365 ft | 485 kts | 20° |
| 2026-04-21 12:17 | 7.88288 | 0.37621 | 26470 ft | 486 kts | 19° |
| 2026-04-21 12:17 | 7.91408 | 0.38832 | 26574 ft | 486 kts | 19° |
| 2026-04-21 12:18 | 7.94603 | 0.40072 | 26675 ft | 487 kts | 19° |
| 2026-04-21 12:18 | 7.97764 | 0.41298 | 26784 ft | 487 kts | 19° |
| 2026-04-21 12:18 | 8.00890 | 0.42512 | 26886 ft | 488 kts | 19° |
| 2026-04-21 12:18 | 8.04056 | 0.43741 | 26982 ft | 488 kts | 19° |
| 2026-04-21 12:19 | 8.07222 | 0.44970 | 27052 ft | 488 kts | 19° |
| 2026-04-21 12:19 | 8.10391 | 0.46202 | 27135 ft | 489 kts | 19° |
| 2026-04-21 12:19 | 8.13572 | 0.47437 | 27231 ft | 489 kts | 19° |
| 2026-04-21 12:19 | 8.16750 | 0.48671 | 27305 ft | 490 kts | 19° |
| 2026-04-21 12:20 | 8.19935 | 0.49909 | 27399 ft | 490 kts | 19° |
| 2026-04-21 12:20 | 8.23111 | 0.51145 | 27493 ft | 490 kts | 19° |
| 2026-04-21 12:20 | 8.26293 | 0.52382 | 27558 ft | 491 kts | 19° |
| 2026-04-21 12:20 | 8.29493 | 0.53627 | 27621 ft | 491 kts | 19° |
| 2026-04-21 12:21 | 8.32679 | 0.54867 | 27702 ft | 492 kts | 19° |
| 2026-04-21 12:21 | 8.34836 | 0.55706 | 27758 ft | 492 kts | 19° |
| 2026-04-21 12:21 | 8.38026 | 0.56947 | 27829 ft | 492 kts | 19° |
| 2026-04-21 12:21 | 8.41185 | 0.58176 | 27905 ft | 493 kts | 19° |
| 2026-04-21 12:22 | 8.44383 | 0.59420 | 27970 ft | 493 kts | 19° |
| 2026-04-21 12:22 | 8.50782 | 0.61913 | 28123 ft | 493 kts | 18° |
| 2026-04-21 12:23 | 8.57199 | 0.64413 | 28253 ft | 494 kts | 18° |
| 2026-04-21 12:23 | 8.63593 | 0.66906 | 28367 ft | 493 kts | 18° |
| 2026-04-21 12:24 | 8.69971 | 0.69390 | 28447 ft | 494 kts | 18° |
| 2026-04-21 12:24 | 8.76391 | 0.71892 | 28549 ft | 494 kts | 18° |
| 2026-04-21 12:25 | 8.82809 | 0.74395 | 28655 ft | 495 kts | 18° |
| 2026-04-21 12:25 | 8.89238 | 0.76904 | 28766 ft | 495 kts | 18° |
| 2026-04-21 12:26 | 8.95668 | 0.79414 | 28839 ft | 495 kts | 18° |
| 2026-04-21 12:26 | 9.02106 | 0.81928 | 28920 ft | 496 kts | 18° |
| 2026-04-21 12:27 | 9.08537 | 0.84441 | 28999 ft | 496 kts | 18° |
| 2026-04-21 12:27 | 9.14974 | 0.86956 | 29075 ft | 496 kts | 18° |
| 2026-04-21 12:28 | 9.21421 | 0.89476 | 29141 ft | 496 kts | 18° |
| 2026-04-21 12:28 | 9.27857 | 0.91992 | 29200 ft | 496 kts | 18° |
| 2026-04-21 12:29 | 9.34319 | 0.94521 | 29269 ft | 497 kts | 18° |
| 2026-04-21 12:29 | 9.40771 | 0.97047 | 29314 ft | 497 kts | 18° |
| 2026-04-21 12:30 | 9.47225 | 0.99572 | 29400 ft | 497 kts | 17° |
| 2026-04-21 12:30 | 9.53797 | 1.01690 | 29490 ft | 494 kts | 12° |
| 2026-04-21 12:31 | 9.60427 | 1.03540 | 29509 ft | 494 kts | 12° |
| 2026-04-21 12:31 | 9.67058 | 1.05437 | 29587 ft | 495 kts | 12° |
| 2026-04-21 12:32 | 9.73671 | 1.07398 | 29620 ft | 495 kts | 12° |
| 2026-04-21 12:32 | 9.80277 | 1.09387 | 29675 ft | 496 kts | 12° |
| 2026-04-21 12:33 | 9.86890 | 1.11379 | 29712 ft | 496 kts | 12° |
| 2026-04-21 12:33 | 9.93469 | 1.13359 | 29675 ft | 497 kts | 12° |
| 2026-04-21 12:34 | 10.00083 | 1.15354 | 29672 ft | 495 kts | 12° |
| 2026-04-21 12:34 | 10.06716 | 1.17347 | 29560 ft | 498 kts | 12° |
| 2026-04-21 12:35 | 10.13347 | 1.19341 | 29585 ft | 497 kts | 12° |
| 2026-04-21 12:35 | 10.19999 | 1.21339 | 29560 ft | 498 kts | 12° |
| 2026-04-21 12:36 | 10.26641 | 1.23339 | 29590 ft | 499 kts | 12° |
| 2026-04-21 12:36 | 10.33290 | 1.25344 | 29619 ft | 499 kts | 12° |
| 2026-04-21 12:37 | 10.39951 | 1.27352 | 29646 ft | 500 kts | 12° |
| 2026-04-21 12:37 | 10.46627 | 1.29361 | 29646 ft | 500 kts | 12° |
| 2026-04-21 12:38 | 10.53287 | 1.31371 | 29669 ft | 500 kts | 12° |
| 2026-04-21 12:38 | 10.59977 | 1.33389 | 29621 ft | 501 kts | 12° |
| 2026-04-21 12:39 | 10.66657 | 1.35409 | 29701 ft | 501 kts | 12° |
| 2026-04-21 12:39 | 10.73343 | 1.37429 | 29717 ft | 501 kts | 12° |
| 2026-04-21 12:40 | 10.80027 | 1.39448 | 29754 ft | 501 kts | 12° |
| 2026-04-21 12:40 | 10.86704 | 1.41467 | 29794 ft | 501 kts | 11° |
| 2026-04-21 12:41 | 10.93388 | 1.43489 | 29813 ft | 501 kts | 11° |
| 2026-04-21 12:41 | 10.99960 | 1.45950 | 29812 ft | 510 kts | 22° |
| 2026-04-21 12:42 | 11.05934 | 1.49961 | 29813 ft | 517 kts | 31° |
| 2026-04-21 12:42 | 11.11682 | 1.54388 | 29815 ft | 519 kts | 32° |
| 2026-04-21 12:43 | 11.17398 | 1.58880 | 29804 ft | 519 kts | 32° |
| 2026-04-21 12:43 | 11.23092 | 1.63322 | 29821 ft | 519 kts | 32° |
| 2026-04-21 12:44 | 11.28843 | 1.67781 | 29857 ft | 519 kts | 32° |
| 2026-04-21 12:44 | 11.34590 | 1.72232 | 29868 ft | 519 kts | 32° |
| 2026-04-21 12:45 | 11.40344 | 1.76687 | 29866 ft | 520 kts | 32° |
| 2026-04-21 12:45 | 11.46104 | 1.81149 | 29873 ft | 520 kts | 32° |
| 2026-04-21 12:46 | 11.51866 | 1.85617 | 29873 ft | 521 kts | 32° |
| 2026-04-21 12:46 | 11.57635 | 1.90092 | 29883 ft | 521 kts | 32° |
| 2026-04-21 12:47 | 11.63413 | 1.94576 | 29909 ft | 521 kts | 32° |
| 2026-04-21 12:47 | 11.69180 | 1.99053 | 29906 ft | 522 kts | 32° |
| 2026-04-21 12:48 | 11.74960 | 2.03544 | 29928 ft | 522 kts | 32° |
| 2026-04-21 12:48 | 11.80742 | 2.08038 | 29928 ft | 522 kts | 32° |
| 2026-04-21 12:49 | 11.86521 | 2.12532 | 29964 ft | 522 kts | 32° |
| 2026-04-21 12:49 | 11.92306 | 2.17034 | 29963 ft | 523 kts | 31° |
| 2026-04-21 12:50 | 11.98092 | 2.21538 | 29972 ft | 523 kts | 31° |
| 2026-04-21 12:50 | 12.03877 | 2.26045 | 29986 ft | 524 kts | 32° |
| 2026-04-21 12:51 | 12.09674 | 2.30563 | 29973 ft | 524 kts | 31° |
| 2026-04-21 12:51 | 12.15469 | 2.35083 | 30005 ft | 524 kts | 31° |
| 2026-04-21 12:52 | 12.21271 | 2.39610 | 29996 ft | 525 kts | 31° |
| 2026-04-21 12:52 | 12.27076 | 2.44142 | 30006 ft | 525 kts | 32° |
| 2026-04-21 12:53 | 12.32886 | 2.48681 | 30003 ft | 526 kts | 31° |
| 2026-04-21 12:53 | 12.38698 | 2.53225 | 30004 ft | 526 kts | 32° |
| 2026-04-21 12:54 | 12.44508 | 2.57769 | 29999 ft | 527 kts | 32° |
| 2026-04-21 12:54 | 12.50332 | 2.62326 | 30006 ft | 527 kts | 32° |
| 2026-04-21 12:55 | 12.56165 | 2.66894 | 29997 ft | 528 kts | 32° |
| 2026-04-21 12:55 | 12.61992 | 2.71459 | 30009 ft | 528 kts | 32° |
| 2026-04-21 12:56 | 12.67827 | 2.76034 | 30008 ft | 528 kts | 32° |
| 2026-04-21 12:56 | 12.73659 | 2.80609 | 30031 ft | 529 kts | 32° |
| 2026-04-21 12:57 | 12.79504 | 2.85197 | 30024 ft | 529 kts | 32° |
| 2026-04-21 12:57 | 12.85356 | 2.89793 | 30024 ft | 530 kts | 32° |
| 2026-04-21 12:58 | 12.91197 | 2.94383 | 30050 ft | 530 kts | 31° |
| 2026-04-21 12:58 | 12.97015 | 2.98958 | 30087 ft | 530 kts | 31° |
| 2026-04-21 12:59 | 13.02864 | 3.03560 | 30094 ft | 530 kts | 31° |
| 2026-04-21 12:59 | 13.08714 | 3.08165 | 30121 ft | 530 kts | 31° |
| 2026-04-21 13:00 | 13.14566 | 3.12776 | 30129 ft | 530 kts | 31° |
| 2026-04-21 13:00 | 13.20420 | 3.17389 | 30166 ft | 530 kts | 31° |
| 2026-04-21 13:01 | 13.26259 | 3.21995 | 30166 ft | 531 kts | 31° |
| 2026-04-21 13:01 | 13.32122 | 3.26622 | 30179 ft | 531 kts | 31° |
| 2026-04-21 13:02 | 13.37977 | 3.31245 | 30186 ft | 531 kts | 31° |
| 2026-04-21 13:02 | 13.46770 | 3.38193 | 30203 ft | 532 kts | 31° |
| 2026-04-21 13:03 | 13.52632 | 3.42818 | 30202 ft | 531 kts | 30° |
| 2026-04-21 13:03 | 13.58976 | 3.46488 | 30238 ft | 519 kts | 19° |
| 2026-04-21 13:04 | 13.65560 | 3.49523 | 30251 ft | 518 kts | 17° |
| 2026-04-21 13:04 | 13.72175 | 3.52456 | 30269 ft | 518 kts | 17° |
| 2026-04-21 13:05 | 13.78784 | 3.55396 | 30269 ft | 518 kts | 17° |
| 2026-04-21 13:05 | 13.85396 | 3.58362 | 30273 ft | 519 kts | 17° |
| 2026-04-21 13:06 | 13.90891 | 3.60837 | 30289 ft | 519 kts | 17° |
| 2026-04-21 13:06 | 13.97496 | 3.63815 | 30306 ft | 518 kts | 17° |
| 2026-04-21 13:07 | 14.04106 | 3.66797 | 30328 ft | 519 kts | 17° |
| 2026-04-21 13:07 | 14.10720 | 3.69781 | 30356 ft | 519 kts | 17° |
| 2026-04-21 13:08 | 14.17334 | 3.72767 | 30373 ft | 519 kts | 17° |
| 2026-04-21 13:08 | 14.23952 | 3.75756 | 30368 ft | 519 kts | 17° |
| 2026-04-21 13:09 | 14.30567 | 3.78745 | 30380 ft | 519 kts | 17° |
| 2026-04-21 13:09 | 14.37185 | 3.81739 | 30391 ft | 519 kts | 17° |
| 2026-04-21 13:10 | 14.43780 | 3.84727 | 30627 ft | 515 kts | 17° |
| 2026-04-21 13:10 | 14.47059 | 3.86213 | 30780 ft | 516 kts | 17° |
| 2026-04-21 13:10 | 14.50355 | 3.87704 | 30933 ft | 518 kts | 17° |
| 2026-04-21 13:11 | 14.53653 | 3.89197 | 31149 ft | 518 kts | 17° |
| 2026-04-21 13:11 | 14.56948 | 3.90690 | 31380 ft | 517 kts | 17° |
| 2026-04-21 13:11 | 14.60249 | 3.92187 | 31626 ft | 517 kts | 17° |
| 2026-04-21 13:11 | 14.63540 | 3.93681 | 31869 ft | 516 kts | 17° |
| 2026-04-21 13:12 | 14.66826 | 3.95172 | 32109 ft | 516 kts | 17° |
| 2026-04-21 13:12 | 14.70108 | 3.96662 | 32348 ft | 515 kts | 17° |
| 2026-04-21 13:12 | 14.73391 | 3.98153 | 32604 ft | 515 kts | 16° |
| 2026-04-21 13:12 | 14.76664 | 3.99640 | 32858 ft | 514 kts | 16° |
| 2026-04-21 13:13 | 14.79931 | 4.01124 | 33110 ft | 514 kts | 16° |
| 2026-04-21 13:13 | 14.83212 | 4.02615 | 33366 ft | 513 kts | 16° |
| 2026-04-21 13:13 | 14.86475 | 4.04099 | 33642 ft | 512 kts | 16° |
| 2026-04-21 13:13 | 14.89735 | 4.05581 | 33902 ft | 511 kts | 16° |
| 2026-04-21 13:14 | 14.92982 | 4.07059 | 34131 ft | 511 kts | 16° |
| 2026-04-21 13:14 | 14.96240 | 4.08541 | 34335 ft | 511 kts | 16° |
| 2026-04-21 13:14 | 14.99502 | 4.10025 | 34555 ft | 511 kts | 16° |
| 2026-04-21 13:14 | 15.02714 | 4.11488 | 34778 ft | 511 kts | 16° |
| 2026-04-21 13:15 | 15.05972 | 4.12972 | 34979 ft | 511 kts | 16° |
| 2026-04-21 13:15 | 15.09224 | 4.14453 | 35208 ft | 511 kts | 16° |
| 2026-04-21 13:15 | 15.12481 | 4.15938 | 35428 ft | 511 kts | 16° |
| 2026-04-21 13:15 | 15.15734 | 4.17421 | 35655 ft | 511 kts | 16° |
| 2026-04-21 13:16 | 15.18989 | 4.18906 | 35866 ft | 511 kts | 16° |
| 2026-04-21 13:16 | 15.22246 | 4.20392 | 36079 ft | 511 kts | 16° |
| 2026-04-21 13:16 | 15.25495 | 4.21875 | 36296 ft | 511 kts | 16° |
| 2026-04-21 13:16 | 15.28754 | 4.23363 | 36527 ft | 511 kts | 16° |
| 2026-04-21 13:17 | 15.32008 | 4.24850 | 36724 ft | 511 kts | 16° |
| 2026-04-21 13:17 | 15.35275 | 4.26341 | 36784 ft | 515 kts | 16° |
| 2026-04-21 13:17 | 15.41843 | 4.29341 | 36785 ft | 516 kts | 16° |
| 2026-04-21 13:18 | 15.44313 | 4.30472 | 36782 ft | 516 kts | 16° |
| 2026-04-21 13:18 | 15.44781 | 4.30687 | 36779 ft | 516 kts | 16° |
| 2026-04-21 13:19 | 15.51341 | 4.33691 | 36780 ft | 516 kts | 16° |
| 2026-04-21 13:19 | 15.57906 | 4.36698 | 36783 ft | 516 kts | 16° |
| 2026-04-21 13:20 | 15.64465 | 4.39704 | 36783 ft | 516 kts | 16° |
| 2026-04-21 13:20 | 15.71037 | 4.42717 | 36786 ft | 515 kts | 16° |
| 2026-04-21 13:21 | 15.77589 | 4.45723 | 36787 ft | 516 kts | 16° |
| 2026-04-21 13:21 | 15.84154 | 4.48738 | 36784 ft | 516 kts | 16° |
| 2026-04-21 13:22 | 15.90682 | 4.51738 | 36784 ft | 516 kts | 15° |
| 2026-04-21 13:22 | 15.97287 | 4.54776 | 36786 ft | 516 kts | 15° |
| 2026-04-21 13:23 | 16.03586 | 4.57688 | 36787 ft | 517 kts | 17° |
| 2026-04-21 13:23 | 16.09981 | 4.61368 | 36787 ft | 524 kts | 22° |
| 2026-04-21 13:24 | 16.16253 | 4.65239 | 36788 ft | 525 kts | 23° |
| 2026-04-21 13:24 | 16.22487 | 4.69124 | 36787 ft | 525 kts | 23° |
| 2026-04-21 13:25 | 16.28799 | 4.73047 | 36788 ft | 526 kts | 22° |
| 2026-04-21 13:25 | 16.35053 | 4.76925 | 36792 ft | 526 kts | 22° |
| 2026-04-21 13:26 | 16.41386 | 4.80852 | 36794 ft | 527 kts | 22° |
| 2026-04-21 13:26 | 16.47684 | 4.84761 | 36791 ft | 527 kts | 22° |
| 2026-04-21 13:27 | 16.53970 | 4.88666 | 36793 ft | 527 kts | 22° |
| 2026-04-21 13:27 | 16.60227 | 4.92556 | 36795 ft | 527 kts | 22° |
| 2026-04-21 13:28 | 16.66526 | 4.96475 | 36795 ft | 527 kts | 22° |
| 2026-04-21 13:28 | 16.72831 | 5.00401 | 36794 ft | 527 kts | 22° |
| 2026-04-21 13:29 | 16.79116 | 5.04317 | 36793 ft | 527 kts | 22° |
| 2026-04-21 13:29 | 16.85408 | 5.08241 | 36793 ft | 527 kts | 22° |
| 2026-04-21 13:30 | 16.91693 | 5.12163 | 36792 ft | 527 kts | 22° |
| 2026-04-21 13:30 | 16.97984 | 5.16092 | 36796 ft | 527 kts | 22° |
| 2026-04-21 13:31 | 17.04280 | 5.20027 | 36796 ft | 527 kts | 22° |
| 2026-04-21 13:31 | 17.10584 | 5.23971 | 36801 ft | 528 kts | 22° |
| 2026-04-21 13:32 | 17.16887 | 5.27917 | 36802 ft | 528 kts | 22° |
| 2026-04-21 13:32 | 17.23182 | 5.31861 | 36799 ft | 528 kts | 22° |
| 2026-04-21 13:33 | 17.29477 | 5.35809 | 36803 ft | 528 kts | 22° |
| 2026-04-21 13:33 | 17.35784 | 5.39767 | 36798 ft | 528 kts | 22° |
| 2026-04-21 13:34 | 17.42088 | 5.43726 | 36798 ft | 528 kts | 22° |
| 2026-04-21 13:34 | 17.48384 | 5.47684 | 36802 ft | 528 kts | 22° |
| 2026-04-21 13:35 | 17.54689 | 5.51650 | 36801 ft | 528 kts | 22° |
| 2026-04-21 13:35 | 17.60989 | 5.55617 | 36804 ft | 528 kts | 22° |
| 2026-04-21 13:36 | 17.67290 | 5.59587 | 36801 ft | 529 kts | 22° |
| 2026-04-21 13:36 | 17.73605 | 5.63569 | 36805 ft | 529 kts | 22° |
| 2026-04-21 13:37 | 17.79920 | 5.67552 | 36804 ft | 529 kts | 22° |
| 2026-04-21 13:37 | 17.83158 | 5.69286 | 36806 ft | 518 kts | 14° |
| 2026-04-21 13:37 | 17.86481 | 5.70710 | 36802 ft | 515 kts | 12° |
| 2026-04-21 13:38 | 17.93180 | 5.73372 | 36793 ft | 514 kts | 11° |
| 2026-04-21 13:38 | 17.99890 | 5.75963 | 36812 ft | 514 kts | 11° |
| 2026-04-21 13:39 | 18.06565 | 5.78555 | 36809 ft | 514 kts | 11° |
| 2026-04-21 13:39 | 18.13269 | 5.81178 | 36812 ft | 514 kts | 11° |
| 2026-04-21 13:40 | 18.19951 | 5.83801 | 36811 ft | 514 kts | 11° |
| 2026-04-21 13:40 | 18.26618 | 5.86420 | 36813 ft | 514 kts | 11° |
| 2026-04-21 13:41 | 18.33318 | 5.89055 | 36819 ft | 514 kts | 11° |
| 2026-04-21 13:41 | 18.40018 | 5.91690 | 36817 ft | 514 kts | 11° |
| 2026-04-21 13:42 | 18.46712 | 5.94325 | 36818 ft | 513 kts | 11° |
| 2026-04-21 13:42 | 18.53391 | 5.96957 | 36826 ft | 512 kts | 11° |
| 2026-04-21 13:43 | 18.60068 | 5.99590 | 36823 ft | 511 kts | 11° |
| 2026-04-21 13:43 | 18.66717 | 6.02213 | 36827 ft | 510 kts | 11° |
| 2026-04-21 13:44 | 18.73360 | 6.04833 | 36831 ft | 509 kts | 11° |
| 2026-04-21 13:44 | 18.79992 | 6.07452 | 36833 ft | 509 kts | 11° |
| 2026-04-21 13:45 | 18.86634 | 6.10078 | 36835 ft | 510 kts | 11° |
| 2026-04-21 13:45 | 18.93284 | 6.12710 | 36834 ft | 511 kts | 11° |
| 2026-04-21 13:46 | 18.99949 | 6.15353 | 36836 ft | 512 kts | 11° |
| 2026-04-21 13:46 | 19.06618 | 6.17999 | 36835 ft | 513 kts | 11° |
| 2026-04-21 13:47 | 19.13283 | 6.20647 | 36838 ft | 513 kts | 11° |
| 2026-04-21 13:47 | 19.19966 | 6.23306 | 36829 ft | 514 kts | 11° |
| 2026-04-21 13:48 | 19.26679 | 6.25977 | 36831 ft | 515 kts | 11° |
| 2026-04-21 13:48 | 19.33403 | 6.28651 | 36852 ft | 516 kts | 11° |
| 2026-04-21 13:49 | 19.40134 | 6.31329 | 36845 ft | 518 kts | 11° |
| 2026-04-21 13:49 | 19.46879 | 6.34018 | 36842 ft | 519 kts | 11° |
| 2026-04-21 13:50 | 19.53653 | 6.36722 | 36846 ft | 520 kts | 11° |
| 2026-04-21 13:50 | 19.60431 | 6.39432 | 36848 ft | 520 kts | 12° |
| 2026-04-21 13:51 | 19.67186 | 6.42134 | 36848 ft | 520 kts | 12° |
| 2026-04-21 13:51 | 19.72832 | 6.44393 | 36846 ft | 521 kts | 12° |
| 2026-04-21 13:52 | 19.79596 | 6.47105 | 36849 ft | 521 kts | 12° |
| 2026-04-21 13:52 | 19.86381 | 6.49828 | 36848 ft | 522 kts | 12° |
| 2026-04-21 13:53 | 19.93178 | 6.52556 | 36845 ft | 522 kts | 12° |
| 2026-04-21 13:53 | 19.99984 | 6.55290 | 36852 ft | 523 kts | 12° |
| 2026-04-21 13:54 | 20.06823 | 6.57776 | 36849 ft | 512 kts | 3° |
| 2026-04-21 13:54 | 20.10300 | 6.58338 | 36855 ft | 498 kts | 354° |
| 2026-04-21 13:54 | 20.13720 | 6.58293 | 36855 ft | 484 kts | 344° |
| 2026-04-21 13:55 | 20.16969 | 6.57668 | 36858 ft | 471 kts | 335° |
| 2026-04-21 13:55 | 20.20062 | 6.56573 | 36859 ft | 464 kts | 330° |
| 2026-04-21 13:55 | 20.26052 | 6.54063 | 36860 ft | 462 kts | 328° |
| 2026-04-21 13:56 | 20.32014 | 6.51475 | 36863 ft | 463 kts | 328° |
| 2026-04-21 13:56 | 20.37994 | 6.48916 | 36863 ft | 464 kts | 329° |
| 2026-04-21 13:57 | 20.44014 | 6.46369 | 36865 ft | 465 kts | 329° |
| 2026-04-21 13:57 | 20.50029 | 6.43831 | 36871 ft | 466 kts | 329° |
| 2026-04-21 13:58 | 20.56080 | 6.41276 | 36871 ft | 467 kts | 329° |
| 2026-04-21 13:58 | 20.62127 | 6.38717 | 36877 ft | 468 kts | 329° |
| 2026-04-21 13:59 | 20.68183 | 6.36153 | 36876 ft | 469 kts | 329° |
| 2026-04-21 13:59 | 20.74262 | 6.33577 | 36877 ft | 470 kts | 329° |
| 2026-04-21 14:00 | 20.80360 | 6.30988 | 36880 ft | 472 kts | 329° |
| 2026-04-21 14:00 | 20.86460 | 6.28398 | 36883 ft | 472 kts | 329° |
| 2026-04-21 14:01 | 20.92533 | 6.25818 | 36879 ft | 473 kts | 329° |
| 2026-04-21 14:01 | 20.98691 | 6.23199 | 36879 ft | 474 kts | 329° |
| 2026-04-21 14:02 | 21.04787 | 6.20604 | 36880 ft | 474 kts | 328° |
| 2026-04-21 14:03 | 21.13989 | 6.16682 | 36877 ft | 475 kts | 329° |
| 2026-04-21 14:03 | 21.20174 | 6.14044 | 36878 ft | 475 kts | 329° |
| 2026-04-21 14:04 | 21.26266 | 6.11442 | 36878 ft | 475 kts | 329° |
| 2026-04-21 14:04 | 21.32415 | 6.08813 | 36875 ft | 476 kts | 329° |
| 2026-04-21 14:05 | 21.38554 | 6.06187 | 36884 ft | 476 kts | 329° |
| 2026-04-21 14:05 | 21.44708 | 6.03551 | 36889 ft | 476 kts | 329° |
| 2026-04-21 14:06 | 21.50859 | 6.00915 | 36879 ft | 476 kts | 329° |
| 2026-04-21 14:06 | 21.57011 | 5.98275 | 36882 ft | 476 kts | 329° |
| 2026-04-21 14:07 | 21.63164 | 5.95633 | 36880 ft | 476 kts | 329° |
| 2026-04-21 14:07 | 21.69314 | 5.92990 | 36885 ft | 476 kts | 329° |
| 2026-04-21 14:08 | 21.75485 | 5.90335 | 36888 ft | 477 kts | 329° |
| 2026-04-21 14:08 | 21.81632 | 5.87688 | 36895 ft | 477 kts | 329° |
| 2026-04-21 14:09 | 21.87793 | 5.85033 | 36888 ft | 477 kts | 329° |
| 2026-04-21 14:09 | 21.93953 | 5.82376 | 36891 ft | 477 kts | 329° |
| 2026-04-21 14:10 | 22.00107 | 5.79718 | 36898 ft | 477 kts | 329° |
| 2026-04-21 14:10 | 22.06266 | 5.77056 | 36899 ft | 477 kts | 329° |
| 2026-04-21 14:11 | 22.12437 | 5.74387 | 36904 ft | 477 kts | 329° |
| 2026-04-21 14:11 | 22.18594 | 5.71721 | 36901 ft | 477 kts | 329° |
| 2026-04-21 14:12 | 22.24761 | 5.69048 | 36905 ft | 477 kts | 329° |
| 2026-04-21 14:12 | 22.30933 | 5.66370 | 36912 ft | 478 kts | 329° |
| 2026-04-21 14:13 | 22.37089 | 5.63697 | 36920 ft | 477 kts | 329° |
| 2026-04-21 14:13 | 22.43255 | 5.61017 | 36912 ft | 478 kts | 329° |
| 2026-04-21 14:14 | 22.49432 | 5.58329 | 36941 ft | 478 kts | 329° |
| 2026-04-21 14:14 | 22.55558 | 5.55661 | 36991 ft | 478 kts | 329° |
| 2026-04-21 14:15 | 22.61733 | 5.52968 | 37047 ft | 478 kts | 329° |
| 2026-04-21 14:15 | 22.67909 | 5.50274 | 37100 ft | 478 kts | 329° |
| 2026-04-21 14:16 | 22.74070 | 5.47583 | 37133 ft | 479 kts | 329° |
| 2026-04-21 14:16 | 22.80329 | 5.45010 | 37130 ft | 487 kts | 335° |
| 2026-04-21 14:17 | 22.87043 | 5.43567 | 37132 ft | 495 kts | 342° |
| 2026-04-21 14:17 | 22.93868 | 5.42450 | 37105 ft | 496 kts | 343° |
| 2026-04-21 14:18 | 23.00700 | 5.41377 | 37061 ft | 496 kts | 343° |
| 2026-04-21 14:18 | 23.07524 | 5.40281 | 37018 ft | 495 kts | 343° |
| 2026-04-21 14:19 | 23.14345 | 5.39166 | 36969 ft | 495 kts | 343° |
| 2026-04-21 14:19 | 23.21148 | 5.38048 | 36948 ft | 495 kts | 343° |
| 2026-04-21 14:20 | 23.27961 | 5.36928 | 36941 ft | 495 kts | 343° |
| 2026-04-21 14:20 | 23.34771 | 5.35810 | 36930 ft | 495 kts | 344° |
| 2026-04-21 14:21 | 23.41587 | 5.34689 | 36920 ft | 495 kts | 344° |
| 2026-04-21 14:21 | 23.48399 | 5.33567 | 36911 ft | 495 kts | 344° |
| 2026-04-21 14:22 | 23.55220 | 5.32445 | 36901 ft | 495 kts | 344° |
| 2026-04-21 14:22 | 23.62028 | 5.31323 | 36892 ft | 495 kts | 344° |
| 2026-04-21 14:23 | 23.68845 | 5.30197 | 36881 ft | 495 kts | 344° |
| 2026-04-21 14:23 | 23.75649 | 5.29072 | 36874 ft | 495 kts | 344° |
| 2026-04-21 14:24 | 23.82459 | 5.27945 | 36869 ft | 494 kts | 344° |
| 2026-04-21 14:24 | 23.89252 | 5.26820 | 36868 ft | 494 kts | 344° |
| 2026-04-21 14:25 | 23.96041 | 5.25694 | 36861 ft | 494 kts | 344° |
| 2026-04-21 14:25 | 24.02825 | 5.24568 | 36861 ft | 493 kts | 344° |
| 2026-04-21 14:26 | 24.09609 | 5.23441 | 36860 ft | 493 kts | 344° |
| 2026-04-21 14:26 | 24.16354 | 5.22319 | 36846 ft | 493 kts | 345° |
| 2026-04-21 14:27 | 24.23168 | 5.21184 | 36857 ft | 492 kts | 344° |
| 2026-04-21 14:27 | 24.29940 | 5.20055 | 36861 ft | 492 kts | 345° |
| 2026-04-21 14:28 | 24.36703 | 5.18926 | 36848 ft | 492 kts | 345° |
| 2026-04-21 14:28 | 24.43458 | 5.17798 | 36849 ft | 491 kts | 345° |
| 2026-04-21 14:29 | 24.50220 | 5.16667 | 36851 ft | 491 kts | 344° |
| 2026-04-21 14:29 | 24.56961 | 5.15536 | 36846 ft | 490 kts | 345° |
| 2026-04-21 14:30 | 24.63717 | 5.14404 | 36838 ft | 491 kts | 345° |
| 2026-04-21 14:30 | 24.70471 | 5.13272 | 36837 ft | 491 kts | 345° |
| 2026-04-21 14:31 | 24.77217 | 5.12138 | 36831 ft | 491 kts | 345° |
| 2026-04-21 14:31 | 24.83977 | 5.11001 | 36824 ft | 491 kts | 345° |
| 2026-04-21 14:32 | 24.90697 | 5.09870 | 36822 ft | 492 kts | 345° |
| 2026-04-21 14:32 | 24.97460 | 5.08731 | 36816 ft | 492 kts | 344° |
| 2026-04-21 14:33 | 25.04225 | 5.07587 | 36810 ft | 492 kts | 345° |
| 2026-04-21 14:33 | 25.11007 | 5.06441 | 36807 ft | 492 kts | 345° |
| 2026-04-21 14:34 | 25.17825 | 5.05289 | 36806 ft | 493 kts | 345° |
| 2026-04-21 14:34 | 25.24554 | 5.04151 | 36803 ft | 493 kts | 345° |
| 2026-04-21 14:35 | 25.31339 | 5.03001 | 36800 ft | 493 kts | 344° |
| 2026-04-21 14:35 | 25.38108 | 5.01852 | 36801 ft | 493 kts | 344° |
| 2026-04-21 14:36 | 25.44913 | 5.00696 | 36797 ft | 494 kts | 344° |
| 2026-04-21 14:36 | 25.51700 | 4.99542 | 36794 ft | 494 kts | 344° |
| 2026-04-21 14:37 | 25.57353 | 4.98579 | 36795 ft | 495 kts | 344° |
| 2026-04-21 14:37 | 25.64152 | 4.97420 | 36793 ft | 495 kts | 344° |
| 2026-04-21 14:38 | 25.70977 | 4.96255 | 36791 ft | 496 kts | 344° |
| 2026-04-21 14:38 | 25.77804 | 4.95089 | 36786 ft | 496 kts | 344° |
| 2026-04-21 14:39 | 25.84630 | 4.93922 | 36785 ft | 497 kts | 344° |
| 2026-04-21 14:39 | 25.91462 | 4.92752 | 36778 ft | 497 kts | 344° |
| 2026-04-21 14:40 | 25.98309 | 4.91578 | 36779 ft | 498 kts | 344° |
| 2026-04-21 14:40 | 26.05152 | 4.90403 | 36777 ft | 498 kts | 344° |
| 2026-04-21 14:41 | 26.12027 | 4.89222 | 36767 ft | 498 kts | 344° |
| 2026-04-21 14:41 | 26.18861 | 4.88044 | 36767 ft | 498 kts | 344° |
| 2026-04-21 14:42 | 26.25718 | 4.86870 | 36754 ft | 498 kts | 344° |
| 2026-04-21 14:42 | 26.32516 | 4.85697 | 36746 ft | 498 kts | 344° |
| 2026-04-21 14:43 | 26.39393 | 4.84506 | 36748 ft | 497 kts | 344° |
| 2026-04-21 14:43 | 26.46227 | 4.83326 | 36744 ft | 497 kts | 344° |
| 2026-04-21 14:44 | 26.53070 | 4.82141 | 36739 ft | 497 kts | 344° |
| 2026-04-21 14:44 | 26.59889 | 4.80959 | 36734 ft | 496 kts | 344° |
| 2026-04-21 14:45 | 26.66715 | 4.79776 | 36729 ft | 496 kts | 344° |
| 2026-04-21 14:45 | 26.73495 | 4.78598 | 36725 ft | 496 kts | 344° |
| 2026-04-21 14:46 | 26.80316 | 4.77411 | 36727 ft | 496 kts | 344° |
| 2026-04-21 14:46 | 26.87130 | 4.76225 | 36726 ft | 496 kts | 344° |
| 2026-04-21 14:47 | 26.93947 | 4.75036 | 36718 ft | 496 kts | 344° |
| 2026-04-21 14:47 | 27.00749 | 4.73848 | 36721 ft | 496 kts | 344° |
| 2026-04-21 14:48 | 27.07562 | 4.72657 | 36720 ft | 496 kts | 344° |
| 2026-04-21 14:48 | 27.14387 | 4.71463 | 36717 ft | 496 kts | 345° |
| 2026-04-21 14:49 | 27.21199 | 4.70269 | 36715 ft | 495 kts | 345° |
| 2026-04-21 14:49 | 27.28000 | 4.69076 | 36715 ft | 495 kts | 345° |
| 2026-04-21 14:50 | 27.34810 | 4.67879 | 36712 ft | 495 kts | 345° |
| 2026-04-21 14:50 | 27.41620 | 4.66682 | 36709 ft | 495 kts | 345° |
| 2026-04-21 14:51 | 27.48429 | 4.65483 | 36714 ft | 495 kts | 345° |
| 2026-04-21 14:51 | 27.55245 | 4.64281 | 36708 ft | 495 kts | 345° |
| 2026-04-21 14:52 | 27.62050 | 4.63080 | 36710 ft | 495 kts | 345° |
| 2026-04-21 14:52 | 27.68850 | 4.61878 | 36704 ft | 495 kts | 345° |
| 2026-04-21 14:53 | 27.75662 | 4.60673 | 36708 ft | 495 kts | 345° |
| 2026-04-21 14:53 | 27.82460 | 4.59468 | 36711 ft | 494 kts | 346° |
| 2026-04-21 14:54 | 27.89261 | 4.58262 | 36713 ft | 494 kts | 346° |
| 2026-04-21 14:54 | 27.96055 | 4.57055 | 36712 ft | 494 kts | 346° |
| 2026-04-21 14:55 | 28.02834 | 4.55850 | 36715 ft | 494 kts | 346° |
| 2026-04-21 14:55 | 28.09583 | 4.54652 | 36713 ft | 479 kts | 346° |
| 2026-04-21 14:55 | 28.12770 | 4.54099 | 36735 ft | 449 kts | 346° |
| 2026-04-21 14:56 | 28.15796 | 4.53566 | 36709 ft | 433 kts | 345° |